Terminal Aerodrome Forecast
Issued by NWS Central Illinois

Home | Current Version | Previous Version | Text Only | Print | Product List | Glossary On
Versions: 1 2 3 4 5 6 7 8 9 10 11 12 13 14
000
FTUS43 KILX 220700 AAA
TAFSPI
TAF AMD
KSPI 220747Z 2208/2306 15012KT P6SM VCSH OVC035
     FM221300 14012KT P6SM OVC030
     FM221500 14012KT 3SM -RA BR OVC008
     FM221800 15015KT 1SM -RA BR OVC005=

USA.gov is the U.S. government's official web portal to all federal, state and local government web resources and services.